sensor_id;sensor_type;location;lat;lon;timestamp;temperature;humidity
38604;DHT22;24924;50.054;8.790;2022-10-22T10:32:17;19.10;99.90
38604;DHT22;24924;50.054;8.790;2022-10-22T10:37:45;19.60;99.90
38604;DHT22;24924;50.054;8.790;2022-10-22T10:40:33;20.00;99.90
38604;DHT22;24924;50.054;8.790;2022-10-22T10:43:04;19.80;99.90
38604;DHT22;24924;50.054;8.790;2022-10-22T10:45:58;19.80;99.90
38604;DHT22;24924;50.054;8.790;2022-10-22T10:51:24;20.00;99.90
38604;DHT22;24924;50.054;8.790;2022-10-22T10:59:57;19.00;99.90
38604;DHT22;24924;50.054;8.790;2022-10-22T11:07:41;18.80;99.90
38604;DHT22;24924;50.054;8.790;2022-10-22T11:12:49;19.70;99.90
38604;DHT22;24924;50.054;8.790;2022-10-22T11:15:34;20.30;99.90
38604;DHT22;24924;50.054;8.790;2022-10-22T11:26:54;19.80;99.90
38604;DHT22;24924;50.054;8.790;2022-10-22T11:29:28;19.30;99.90
38604;DHT22;24924;50.054;8.790;2022-10-22T11:31:55;19.00;99.90
38604;DHT22;24924;50.054;8.790;2022-10-22T11:34:44;19.00;99.90
38604;DHT22;24924;50.054;8.790;2022-10-22T11:37:10;18.90;99.90
38604;DHT22;24924;50.054;8.790;2022-10-22T11:39:48;18.90;99.90
38604;DHT22;24924;50.054;8.790;2022-10-22T11:42:19;19.20;99.90
38604;DHT22;24924;50.054;8.790;2022-10-22T12:01:16;19.30;99.90
38604;DHT22;24924;50.054;8.790;2022-10-22T12:06:25;19.90;99.90
38604;DHT22;24924;50.054;8.790;2022-10-22T12:11:22;19.60;99.90
38604;DHT22;24924;50.054;8.790;2022-10-22T12:16:38;19.80;99.90
38604;DHT22;24924;50.054;8.790;2022-10-22T12:19:17;19.80;99.90
38604;DHT22;24924;50.054;8.790;2022-10-22T12:21:53;20.00;99.90
38604;DHT22;24924;50.054;8.790;2022-10-22T12:24:22;20.40;99.90
38604;DHT22;24924;50.054;8.790;2022-10-22T12:26:48;20.40;99.90
38604;DHT22;24924;50.054;8.790;2022-10-22T12:29:18;20.50;99.90
38604;DHT22;24924;50.054;8.790;2022-10-22T12:31:45;20.70;99.90
38604;DHT22;24924;50.054;8.790;2022-10-22T12:34:16;20.80;99.90
38604;DHT22;24924;50.054;8.790;2022-10-22T12:36:43;20.60;99.90
38604;DHT22;24924;50.054;8.790;2022-10-22T12:39:37;20.40;99.90
38604;DHT22;24924;50.054;8.790;2022-10-22T12:42:04;20.40;99.90
38604;DHT22;24924;50.054;8.790;2022-10-22T12:44:31;20.10;99.90
38604;DHT22;24924;50.054;8.790;2022-10-22T12:46:57;20.10;99.90
38604;DHT22;24924;50.054;8.790;2022-10-22T12:49:35;19.90;99.90
38604;DHT22;24924;50.054;8.790;2022-10-22T12:52:07;19.90;99.90
38604;DHT22;24924;50.054;8.790;2022-10-22T12:54:38;20.10;99.90
38604;DHT22;24924;50.054;8.790;2022-10-22T12:57:05;20.30;99.90
38604;DHT22;24924;50.054;8.790;2022-10-22T12:59:36;20.10;99.90
38604;DHT22;24924;50.054;8.790;2022-10-22T13:02:21;20.60;99.90
38604;DHT22;24924;50.054;8.790;2022-10-22T13:05:16;21.00;99.90
38604;DHT22;24924;50.054;8.790;2022-10-22T13:07:50;21.40;99.90
38604;DHT22;24924;50.054;8.790;2022-10-22T13:10:24;21.50;99.90
38604;DHT22;24924;50.054;8.790;2022-10-22T13:12:54;21.70;99.90
38604;DHT22;24924;50.054;8.790;2022-10-22T13:18:05;21.20;99.90
38604;DHT22;24924;50.054;8.790;2022-10-22T13:20:32;21.30;99.90
38604;DHT22;24924;50.054;8.790;2022-10-22T13:23:03;21.50;99.90
38604;DHT22;24924;50.054;8.790;2022-10-22T13:25:36;21.50;99.90
38604;DHT22;24924;50.054;8.790;2022-10-22T13:28:18;21.30;99.90
38604;DHT22;24924;50.054;8.790;2022-10-22T13:33:24;21.10;99.90
38604;DHT22;24924;50.054;8.790;2022-10-22T13:35:52;20.90;99.90
38604;DHT22;24924;50.054;8.790;2022-10-22T13:38:20;20.60;99.90
38604;DHT22;24924;50.054;8.790;2022-10-22T13:40:47;21.00;99.90
38604;DHT22;24924;50.054;8.790;2022-10-22T13:43:14;21.30;99.90
38604;DHT22;24924;50.054;8.790;2022-10-22T13:45:41;21.20;99.90
38604;DHT22;24924;50.054;8.790;2022-10-22T13:48:12;21.40;99.90
38604;DHT22;24924;50.054;8.790;2022-10-22T13:50:39;21.40;99.90
38604;DHT22;24924;50.054;8.790;2022-10-22T13:53:09;21.40;99.90
38604;DHT22;24924;50.054;8.790;2022-10-22T13:55:43;20.90;99.90
38604;DHT22;24924;50.054;8.790;2022-10-22T13:58:12;20.90;99.90
38604;DHT22;24924;50.054;8.790;2022-10-22T14:00:40;20.60;99.90
38604;DHT22;24924;50.054;8.790;2022-10-22T14:03:10;20.60;99.90
38604;DHT22;24924;50.054;8.790;2022-10-22T14:05:36;20.70;99.90
38604;DHT22;24924;50.054;8.790;2022-10-22T14:08:03;20.70;99.90
38604;DHT22;24924;50.054;8.790;2022-10-22T14:10:29;20.80;99.90
38604;DHT22;24924;50.054;8.790;2022-10-22T14:12:54;20.60;99.90
38604;DHT22;24924;50.054;8.790;2022-10-22T14:15:22;20.60;99.90
38604;DHT22;24924;50.054;8.790;2022-10-22T14:17:56;20.50;99.90
38604;DHT22;24924;50.054;8.790;2022-10-22T14:20:30;20.40;99.90
38604;DHT22;24924;50.054;8.790;2022-10-22T14:23:20;20.20;99.90
38604;DHT22;24924;50.054;8.790;2022-10-22T14:25:46;20.20;99.90
38604;DHT22;24924;50.054;8.790;2022-10-22T14:28:13;20.40;99.90
38604;DHT22;24924;50.054;8.790;2022-10-22T14:30:39;20.30;99.90
38604;DHT22;24924;50.054;8.790;2022-10-22T14:33:15;20.40;99.90
38604;DHT22;24924;50.054;8.790;2022-10-22T14:35:41;20.30;99.90
38604;DHT22;24924;50.054;8.790;2022-10-22T14:38:08;20.30;99.90
38604;DHT22;24924;50.054;8.790;2022-10-22T14:40:34;20.40;99.90
38604;DHT22;24924;50.054;8.790;2022-10-22T14:43:00;20.30;99.90
38604;DHT22;24924;50.054;8.790;2022-10-22T14:45:26;20.20;99.90
38604;DHT22;24924;50.054;8.790;2022-10-22T14:47:53;20.10;99.90
38604;DHT22;24924;50.054;8.790;2022-10-22T14:50:22;20.10;99.90
38604;DHT22;24924;50.054;8.790;2022-10-22T14:52:49;20.00;99.90
38604;DHT22;24924;50.054;8.790;2022-10-22T14:55:16;20.00;99.90
38604;DHT22;24924;50.054;8.790;2022-10-22T14:57:43;19.90;99.90
38604;DHT22;24924;50.054;8.790;2022-10-22T15:00:12;19.90;99.90
38604;DHT22;24924;50.054;8.790;2022-10-22T15:02:38;19.80;99.90
38604;DHT22;24924;50.054;8.790;2022-10-22T15:05:04;19.80;99.90
38604;DHT22;24924;50.054;8.790;2022-10-22T15:07:30;19.80;99.90
38604;DHT22;24924;50.054;8.790;2022-10-22T15:09:56;19.70;99.90
38604;DHT22;24924;50.054;8.790;2022-10-22T15:12:21;19.80;99.90
38604;DHT22;24924;50.054;8.790;2022-10-22T15:14:47;19.70;99.90
38604;DHT22;24924;50.054;8.790;2022-10-22T15:17:13;19.70;99.90
38604;DHT22;24924;50.054;8.790;2022-10-22T15:19:39;19.60;99.90
38604;DHT22;24924;50.054;8.790;2022-10-22T15:22:05;19.70;99.90
38604;DHT22;24924;50.054;8.790;2022-10-22T15:24:32;19.50;99.90
38604;DHT22;24924;50.054;8.790;2022-10-22T15:26:57;19.60;99.90
38604;DHT22;24924;50.054;8.790;2022-10-22T15:29:23;19.50;99.90
38604;DHT22;24924;50.054;8.790;2022-10-22T15:31:54;19.50;99.90
38604;DHT22;24924;50.054;8.790;2022-10-22T15:34:25;19.40;99.90
38604;DHT22;24924;50.054;8.790;2022-10-22T15:36:53;19.40;99.90
38604;DHT22;24924;50.054;8.790;2022-10-22T15:39:19;19.30;99.90
38604;DHT22;24924;50.054;8.790;2022-10-22T15:41:46;19.30;99.90
38604;DHT22;24924;50.054;8.790;2022-10-22T15:44:24;19.20;99.90
38604;DHT22;24924;50.054;8.790;2022-10-22T15:46:50;19.00;99.90
38604;DHT22;24924;50.054;8.790;2022-10-22T15:49:17;18.90;99.90
38604;DHT22;24924;50.054;8.790;2022-10-22T15:51:43;19.10;99.90
38604;DHT22;24924;50.054;8.790;2022-10-22T15:54:13;19.00;99.90
38604;DHT22;24924;50.054;8.790;2022-10-22T15:56:40;19.00;99.90
38604;DHT22;24924;50.054;8.790;2022-10-22T15:59:06;18.90;99.90
38604;DHT22;24924;50.054;8.790;2022-10-22T16:01:33;18.70;99.90
38604;DHT22;24924;50.054;8.790;2022-10-22T16:04:00;18.60;99.90
38604;DHT22;24924;50.054;8.790;2022-10-22T16:09:00;18.60;99.90
38604;DHT22;24924;50.054;8.790;2022-10-22T16:11:27;18.70;99.90
38604;DHT22;24924;50.054;8.790;2022-10-22T16:13:54;18.60;99.90
38604;DHT22;24924;50.054;8.790;2022-10-22T16:16:25;18.50;99.90
38604;DHT22;24924;50.054;8.790;2022-10-22T16:18:52;18.20;99.90
38604;DHT22;24924;50.054;8.790;2022-10-22T16:21:22;17.90;99.90
38604;DHT22;24924;50.054;8.790;2022-10-22T16:23:48;17.80;99.90
38604;DHT22;24924;50.054;8.790;2022-10-22T16:26:14;17.50;99.90
38604;DHT22;24924;50.054;8.790;2022-10-22T16:28:41;17.30;99.90
38604;DHT22;24924;50.054;8.790;2022-10-22T16:31:10;17.10;99.90
38604;DHT22;24924;50.054;8.790;2022-10-22T16:33:38;16.90;99.90
38604;DHT22;24924;50.054;8.790;2022-10-22T16:36:08;17.00;99.90
38604;DHT22;24924;50.054;8.790;2022-10-22T16:38:34;16.90;99.90
38604;DHT22;24924;50.054;8.790;2022-10-22T16:41:20;16.80;99.90
38604;DHT22;24924;50.054;8.790;2022-10-22T16:46:40;16.60;99.90
38604;DHT22;24924;50.054;8.790;2022-10-22T16:49:06;16.40;99.90
38604;DHT22;24924;50.054;8.790;2022-10-22T16:51:32;16.40;99.90
38604;DHT22;24924;50.054;8.790;2022-10-22T16:53:58;16.50;99.90
38604;DHT22;24924;50.054;8.790;2022-10-22T16:56:24;16.40;99.90
38604;DHT22;24924;50.054;8.790;2022-10-22T16:58:53;16.40;99.90
38604;DHT22;24924;50.054;8.790;2022-10-22T17:01:21;16.30;99.90
38604;DHT22;24924;50.054;8.790;2022-10-22T17:03:47;16.20;99.90
38604;DHT22;24924;50.054;8.790;2022-10-22T17:06:13;16.00;99.90
38604;DHT22;24924;50.054;8.790;2022-10-22T17:08:40;15.90;99.90
38604;DHT22;24924;50.054;8.790;2022-10-22T17:11:12;15.70;99.90
38604;DHT22;24924;50.054;8.790;2022-10-22T17:13:39;15.60;99.90
38604;DHT22;24924;50.054;8.790;2022-10-22T17:16:09;15.50;99.90
38604;DHT22;24924;50.054;8.790;2022-10-22T17:18:37;15.40;99.90
38604;DHT22;24924;50.054;8.790;2022-10-22T17:21:04;15.30;99.90
38604;DHT22;24924;50.054;8.790;2022-10-22T17:23:31;15.30;99.90
38604;DHT22;24924;50.054;8.790;2022-10-22T17:25:58;15.30;99.90
